sensor_id;sensor_type;location;lat;lon;timestamp;P1;durP1;ratioP1;P2;durP2;ratioP2
17345;SDS011;8790;53.590;10.002;2023-04-16T00:00:11;22.40;;;16.50;;
17345;SDS011;8790;53.590;10.002;2023-04-16T00:02:43;23.57;;;16.83;;
17345;SDS011;8790;53.590;10.002;2023-04-16T00:05:15;21.60;;;16.77;;
17345;SDS011;8790;53.590;10.002;2023-04-16T00:07:46;20.70;;;16.27;;
17345;SDS011;8790;53.590;10.002;2023-04-16T00:10:21;23.60;;;15.97;;
17345;SDS011;8790;53.590;10.002;2023-04-16T00:12:53;22.73;;;16.00;;
17345;SDS011;8790;53.590;10.002;2023-04-16T00:15:25;21.87;;;16.40;;
17345;SDS011;8790;53.590;10.002;2023-04-16T00:17:56;21.20;;;16.27;;
17345;SDS011;8790;53.590;10.002;2023-04-16T00:20:28;20.20;;;16.20;;
17345;SDS011;8790;53.590;10.002;2023-04-16T00:23:00;21.80;;;15.70;;
17345;SDS011;8790;53.590;10.002;2023-04-16T00:25:33;22.47;;;16.17;;
17345;SDS011;8790;53.590;10.002;2023-04-16T00:28:04;21.60;;;16.20;;
17345;SDS011;8790;53.590;10.002;2023-04-16T00:30:36;21.77;;;16.13;;
17345;SDS011;8790;53.590;10.002;2023-04-16T00:33:08;21.50;;;15.97;;
17345;SDS011;8790;53.590;10.002;2023-04-16T00:35:40;21.50;;;16.43;;
17345;SDS011;8790;53.590;10.002;2023-04-16T00:38:12;21.90;;;15.57;;
17345;SDS011;8790;53.590;10.002;2023-04-16T00:40:45;19.30;;;15.90;;
17345;SDS011;8790;53.590;10.002;2023-04-16T00:43:21;20.47;;;15.57;;
17345;SDS011;8790;53.590;10.002;2023-04-16T00:45:55;22.13;;;16.10;;
17345;SDS011;8790;53.590;10.002;2023-04-16T00:48:27;21.23;;;16.53;;
17345;SDS011;8790;53.590;10.002;2023-04-16T00:51:02;20.57;;;15.83;;
17345;SDS011;8790;53.590;10.002;2023-04-16T00:53:35;20.97;;;16.20;;
17345;SDS011;8790;53.590;10.002;2023-04-16T00:56:09;21.30;;;15.50;;
17345;SDS011;8790;53.590;10.002;2023-04-16T00:58:41;19.47;;;14.57;;
17345;SDS011;8790;53.590;10.002;2023-04-16T01:01:13;19.03;;;15.70;;
17345;SDS011;8790;53.590;10.002;2023-04-16T01:03:45;20.67;;;15.53;;
17345;SDS011;8790;53.590;10.002;2023-04-16T01:06:18;18.50;;;15.30;;
17345;SDS011;8790;53.590;10.002;2023-04-16T01:08:51;19.03;;;15.57;;
17345;SDS011;8790;53.590;10.002;2023-04-16T01:11:24;22.73;;;15.47;;
17345;SDS011;8790;53.590;10.002;2023-04-16T01:13:55;20.77;;;15.80;;
17345;SDS011;8790;53.590;10.002;2023-04-16T01:16:27;22.10;;;15.77;;
17345;SDS011;8790;53.590;10.002;2023-04-16T01:19:00;19.73;;;14.70;;
17345;SDS011;8790;53.590;10.002;2023-04-16T01:21:33;19.67;;;14.93;;
17345;SDS011;8790;53.590;10.002;2023-04-16T01:24:05;19.23;;;15.43;;
17345;SDS011;8790;53.590;10.002;2023-04-16T01:26:37;18.73;;;14.10;;
17345;SDS011;8790;53.590;10.002;2023-04-16T01:29:09;19.13;;;14.57;;
17345;SDS011;8790;53.590;10.002;2023-04-16T01:31:40;20.10;;;14.97;;
17345;SDS011;8790;53.590;10.002;2023-04-16T01:34:23;19.13;;;14.83;;
17345;SDS011;8790;53.590;10.002;2023-04-16T01:36:56;19.07;;;14.80;;
17345;SDS011;8790;53.590;10.002;2023-04-16T01:39:28;20.27;;;14.77;;
17345;SDS011;8790;53.590;10.002;2023-04-16T01:42:01;18.03;;;14.30;;
17345;SDS011;8790;53.590;10.002;2023-04-16T01:44:32;19.67;;;14.97;;
17345;SDS011;8790;53.590;10.002;2023-04-16T01:47:04;20.63;;;14.93;;
17345;SDS011;8790;53.590;10.002;2023-04-16T01:49:36;18.63;;;14.33;;
17345;SDS011;8790;53.590;10.002;2023-04-16T01:52:09;19.83;;;14.93;;
17345;SDS011;8790;53.590;10.002;2023-04-16T01:54:41;18.10;;;14.73;;
17345;SDS011;8790;53.590;10.002;2023-04-16T01:57:12;19.47;;;14.37;;
17345;SDS011;8790;53.590;10.002;2023-04-16T01:59:44;18.47;;;14.57;;
17345;SDS011;8790;53.590;10.002;2023-04-16T02:02:16;19.80;;;14.43;;
17345;SDS011;8790;53.590;10.002;2023-04-16T02:04:48;18.40;;;14.07;;
17345;SDS011;8790;53.590;10.002;2023-04-16T02:07:21;19.33;;;13.80;;
17345;SDS011;8790;53.590;10.002;2023-04-16T02:09:52;17.07;;;13.40;;
17345;SDS011;8790;53.590;10.002;2023-04-16T02:12:25;18.87;;;14.23;;
17345;SDS011;8790;53.590;10.002;2023-04-16T02:14:56;17.90;;;14.43;;
17345;SDS011;8790;53.590;10.002;2023-04-16T02:17:30;22.77;;;14.20;;
17345;SDS011;8790;53.590;10.002;2023-04-16T02:20:13;17.90;;;13.87;;
17345;SDS011;8790;53.590;10.002;2023-04-16T02:22:53;18.70;;;13.93;;
17345;SDS011;8790;53.590;10.002;2023-04-16T02:25:27;30.07;;;18.40;;
17345;SDS011;8790;53.590;10.002;2023-04-16T02:28:00;17.70;;;13.87;;
17345;SDS011;8790;53.590;10.002;2023-04-16T02:30:40;17.07;;;13.57;;
17345;SDS011;8790;53.590;10.002;2023-04-16T02:33:13;18.47;;;14.17;;
17345;SDS011;8790;53.590;10.002;2023-04-16T02:35:56;18.10;;;13.60;;
17345;SDS011;8790;53.590;10.002;2023-04-16T02:38:29;18.43;;;13.97;;
17345;SDS011;8790;53.590;10.002;2023-04-16T02:41:01;19.13;;;14.30;;
17345;SDS011;8790;53.590;10.002;2023-04-16T02:43:33;17.97;;;13.43;;
17345;SDS011;8790;53.590;10.002;2023-04-16T02:46:05;19.10;;;14.67;;
17345;SDS011;8790;53.590;10.002;2023-04-16T02:48:37;19.67;;;14.80;;
17345;SDS011;8790;53.590;10.002;2023-04-16T02:51:08;20.23;;;15.20;;
17345;SDS011;8790;53.590;10.002;2023-04-16T02:53:41;18.77;;;14.83;;
17345;SDS011;8790;53.590;10.002;2023-04-16T02:56:15;20.47;;;15.47;;
17345;SDS011;8790;53.590;10.002;2023-04-16T02:58:47;19.13;;;14.10;;
17345;SDS011;8790;53.590;10.002;2023-04-16T03:01:19;19.03;;;14.37;;
17345;SDS011;8790;53.590;10.002;2023-04-16T03:03:51;20.27;;;15.13;;
17345;SDS011;8790;53.590;10.002;2023-04-16T03:06:22;19.03;;;14.80;;
17345;SDS011;8790;53.590;10.002;2023-04-16T03:08:56;18.47;;;15.37;;
17345;SDS011;8790;53.590;10.002;2023-04-16T03:11:28;21.20;;;16.07;;
17345;SDS011;8790;53.590;10.002;2023-04-16T03:14:00;21.47;;;15.50;;
17345;SDS011;8790;53.590;10.002;2023-04-16T03:16:31;20.33;;;15.30;;
17345;SDS011;8790;53.590;10.002;2023-04-16T03:19:03;21.60;;;16.37;;
17345;SDS011;8790;53.590;10.002;2023-04-16T03:21:35;21.63;;;16.30;;
17345;SDS011;8790;53.590;10.002;2023-04-16T03:24:08;20.43;;;16.00;;
17345;SDS011;8790;53.590;10.002;2023-04-16T03:26:39;21.20;;;16.30;;
17345;SDS011;8790;53.590;10.002;2023-04-16T03:29:12;21.07;;;15.57;;
17345;SDS011;8790;53.590;10.002;2023-04-16T03:31:44;22.83;;;16.10;;
17345;SDS011;8790;53.590;10.002;2023-04-16T03:34:15;22.63;;;16.43;;
17345;SDS011;8790;53.590;10.002;2023-04-16T03:36:47;21.70;;;16.07;;
17345;SDS011;8790;53.590;10.002;2023-04-16T03:39:22;20.63;;;16.00;;
17345;SDS011;8790;53.590;10.002;2023-04-16T03:41:53;19.20;;;15.10;;
17345;SDS011;8790;53.590;10.002;2023-04-16T03:44:25;23.20;;;16.67;;
17345;SDS011;8790;53.590;10.002;2023-04-16T03:46:57;23.03;;;16.70;;
17345;SDS011;8790;53.590;10.002;2023-04-16T03:49:29;22.50;;;16.90;;
17345;SDS011;8790;53.590;10.002;2023-04-16T03:52:02;21.87;;;16.10;;
17345;SDS011;8790;53.590;10.002;2023-04-16T03:54:36;20.00;;;16.03;;
17345;SDS011;8790;53.590;10.002;2023-04-16T03:57:21;21.80;;;16.07;;
17345;SDS011;8790;53.590;10.002;2023-04-16T03:59:53;20.93;;;16.23;;
17345;SDS011;8790;53.590;10.002;2023-04-16T04:02:25;20.67;;;16.10;;
17345;SDS011;8790;53.590;10.002;2023-04-16T04:04:57;20.83;;;16.40;;
17345;SDS011;8790;53.590;10.002;2023-04-16T04:07:28;21.30;;;16.73;;
17345;SDS011;8790;53.590;10.002;2023-04-16T04:10:02;23.43;;;15.80;;
17345;SDS011;8790;53.590;10.002;2023-04-16T04:12:38;20.10;;;16.03;;
17345;SDS011;8790;53.590;10.002;2023-04-16T04:15:10;19.67;;;15.93;;
17345;SDS011;8790;53.590;10.002;2023-04-16T04:17:42;20.73;;;16.23;;
17345;SDS011;8790;53.590;10.002;2023-04-16T04:20:14;22.87;;;16.03;;
17345;SDS011;8790;53.590;10.002;2023-04-16T04:22:48;20.73;;;16.57;;
17345;SDS011;8790;53.590;10.002;2023-04-16T04:25:24;22.90;;;17.43;;
17345;SDS011;8790;53.590;10.002;2023-04-16T04:27:56;21.80;;;17.73;;
17345;SDS011;8790;53.590;10.002;2023-04-16T04:30:28;22.00;;;16.23;;
17345;SDS011;8790;53.590;10.002;2023-04-16T04:33:00;22.00;;;17.43;;
17345;SDS011;8790;53.590;10.002;2023-04-16T04:35:31;20.57;;;16.50;;
17345;SDS011;8790;53.590;10.002;2023-04-16T04:38:04;20.43;;;16.63;;
17345;SDS011;8790;53.590;10.002;2023-04-16T04:40:38;22.77;;;16.70;;
17345;SDS011;8790;53.590;10.002;2023-04-16T04:43:11;21.80;;;16.60;;
17345;SDS011;8790;53.590;10.002;2023-04-16T04:45:43;21.43;;;16.80;;
17345;SDS011;8790;53.590;10.002;2023-04-16T04:48:15;24.60;;;16.17;;
17345;SDS011;8790;53.590;10.002;2023-04-16T04:50:47;20.03;;;16.23;;
17345;SDS011;8790;53.590;10.002;2023-04-16T04:53:19;20.57;;;15.37;;
17345;SDS011;8790;53.590;10.002;2023-04-16T04:55:53;19.23;;;15.20;;
17345;SDS011;8790;53.590;10.002;2023-04-16T04:58:24;21.77;;;16.73;;
17345;SDS011;8790;53.590;10.002;2023-04-16T05:00:56;19.60;;;16.10;;
17345;SDS011;8790;53.590;10.002;2023-04-16T05:03:28;19.57;;;15.57;;
17345;SDS011;8790;53.590;10.002;2023-04-16T05:06:00;20.13;;;16.63;;
17345;SDS011;8790;53.590;10.002;2023-04-16T05:08:31;20.87;;;16.07;;
17345;SDS011;8790;53.590;10.002;2023-04-16T05:11:04;19.73;;;15.47;;
17345;SDS011;8790;53.590;10.002;2023-04-16T05:13:36;23.20;;;16.30;;
17345;SDS011;8790;53.590;10.002;2023-04-16T05:16:08;20.53;;;15.90;;
17345;SDS011;8790;53.590;10.002;2023-04-16T05:18:40;21.37;;;16.43;;
17345;SDS011;8790;53.590;10.002;2023-04-16T05:21:11;19.77;;;15.77;;
17345;SDS011;8790;53.590;10.002;2023-04-16T05:23:43;23.47;;;15.40;;
17345;SDS011;8790;53.590;10.002;2023-04-16T05:26:16;24.70;;;16.03;;
17345;SDS011;8790;53.590;10.002;2023-04-16T05:28:48;21.77;;;16.10;;
17345;SDS011;8790;53.590;10.002;2023-04-16T05:31:19;20.53;;;15.80;;
17345;SDS011;8790;53.590;10.002;2023-04-16T05:33:51;21.90;;;16.07;;
17345;SDS011;8790;53.590;10.002;2023-04-16T05:36:23;19.80;;;15.83;;
17345;SDS011;8790;53.590;10.002;2023-04-16T05:38:54;22.17;;;17.07;;
17345;SDS011;8790;53.590;10.002;2023-04-16T05:41:27;19.90;;;16.30;;
17345;SDS011;8790;53.590;10.002;2023-04-16T05:43:59;22.17;;;16.87;;
17345;SDS011;8790;53.590;10.002;2023-04-16T05:46:31;22.90;;;16.13;;
17345;SDS011;8790;53.590;10.002;2023-04-16T05:49:03;20.83;;;15.73;;
17345;SDS011;8790;53.590;10.002;2023-04-16T05:51:34;19.47;;;15.20;;
17345;SDS011;8790;53.590;10.002;2023-04-16T05:54:06;21.20;;;16.60;;
17345;SDS011;8790;53.590;10.002;2023-04-16T05:56:39;23.67;;;16.83;;
17345;SDS011;8790;53.590;10.002;2023-04-16T05:59:11;21.30;;;16.23;;
17345;SDS011;8790;53.590;10.002;2023-04-16T06:01:42;20.43;;;16.90;;
17345;SDS011;8790;53.590;10.002;2023-04-16T06:04:14;21.57;;;15.77;;
17345;SDS011;8790;53.590;10.002;2023-04-16T06:06:46;22.53;;;17.30;;
17345;SDS011;8790;53.590;10.002;2023-04-16T06:09:18;21.00;;;16.37;;
17345;SDS011;8790;53.590;10.002;2023-04-16T06:11:51;26.27;;;17.57;;
17345;SDS011;8790;53.590;10.002;2023-04-16T06:14:22;19.43;;;15.27;;
17345;SDS011;8790;53.590;10.002;2023-04-16T06:16:54;21.30;;;16.97;;
17345;SDS011;8790;53.590;10.002;2023-04-16T06:19:26;22.53;;;16.30;;
17345;SDS011;8790;53.590;10.002;2023-04-16T06:21:58;21.20;;;16.00;;
17345;SDS011;8790;53.590;10.002;2023-04-16T06:24:29;20.37;;;17.07;;
17345;SDS011;8790;53.590;10.002;2023-04-16T06:27:02;20.97;;;15.70;;
17345;SDS011;8790;53.590;10.002;2023-04-16T06:29:34;20.17;;;15.93;;
17345;SDS011;8790;53.590;10.002;2023-04-16T06:32:06;20.83;;;16.20;;
17345;SDS011;8790;53.590;10.002;2023-04-16T06:34:38;21.00;;;16.57;;
17345;SDS011;8790;53.590;10.002;2023-04-16T06:37:10;22.67;;;16.50;;
17345;SDS011;8790;53.590;10.002;2023-04-16T06:39:42;21.90;;;16.53;;
17345;SDS011;8790;53.590;10.002;2023-04-16T06:42:15;22.10;;;16.10;;
17345;SDS011;8790;53.590;10.002;2023-04-16T06:44:47;21.63;;;16.80;;
17345;SDS011;8790;53.590;10.002;2023-04-16T06:47:19;19.30;;;15.77;;
17345;SDS011;8790;53.590;10.002;2023-04-16T06:49:51;20.67;;;16.10;;
17345;SDS011;8790;53.590;10.002;2023-04-16T06:52:22;21.43;;;16.57;;
17345;SDS011;8790;53.590;10.002;2023-04-16T06:54:55;21.17;;;15.93;;
17345;SDS011;8790;53.590;10.002;2023-04-16T06:57:28;22.27;;;16.50;;
17345;SDS011;8790;53.590;10.002;2023-04-16T06:59:59;21.27;;;15.60;;
17345;SDS011;8790;53.590;10.002;2023-04-16T07:02:31;19.80;;;15.93;;
17345;SDS011;8790;53.590;10.002;2023-04-16T07:05:03;24.27;;;16.47;;
17345;SDS011;8790;53.590;10.002;2023-04-16T07:07:35;19.13;;;15.43;;
17345;SDS011;8790;53.590;10.002;2023-04-16T07:10:07;20.87;;;16.03;;
17345;SDS011;8790;53.590;10.002;2023-04-16T07:12:42;19.40;;;15.63;;
17345;SDS011;8790;53.590;10.002;2023-04-16T07:15:14;19.20;;;15.57;;
17345;SDS011;8790;53.590;10.002;2023-04-16T07:17:46;24.60;;;16.40;;
17345;SDS011;8790;53.590;10.002;2023-04-16T07:20:18;19.57;;;15.10;;
17345;SDS011;8790;53.590;10.002;2023-04-16T07:22:50;19.43;;;15.03;;
17345;SDS011;8790;53.590;10.002;2023-04-16T07:25:22;21.90;;;14.80;;
17345;SDS011;8790;53.590;10.002;2023-04-16T07:27:55;18.77;;;15.13;;
17345;SDS011;8790;53.590;10.002;2023-04-16T07:30:27;20.17;;;15.43;;
17345;SDS011;8790;53.590;10.002;2023-04-16T07:33:03;21.40;;;14.80;;
17345;SDS011;8790;53.590;10.002;2023-04-16T07:35:35;18.77;;;14.10;;
17345;SDS011;8790;53.590;10.002;2023-04-16T07:38:06;19.73;;;15.10;;
17345;SDS011;8790;53.590;10.002;2023-04-16T07:40:38;19.53;;;14.87;;
17345;SDS011;8790;53.590;10.002;2023-04-16T07:43:12;19.40;;;14.93;;
17345;SDS011;8790;53.590;10.002;2023-04-16T07:45:45;21.57;;;15.50;;
17345;SDS011;8790;53.590;10.002;2023-04-16T07:48:16;18.13;;;14.63;;
17345;SDS011;8790;53.590;10.002;2023-04-16T07:50:48;19.40;;;14.63;;
17345;SDS011;8790;53.590;10.002;2023-04-16T07:53:20;17.33;;;15.03;;
17345;SDS011;8790;53.590;10.002;2023-04-16T07:55:52;19.83;;;15.33;;
17345;SDS011;8790;53.590;10.002;2023-04-16T07:58:25;22.13;;;15.60;;
17345;SDS011;8790;53.590;10.002;2023-04-16T08:00:56;18.97;;;14.20;;
17345;SDS011;8790;53.590;10.002;2023-04-16T08:03:28;17.97;;;14.57;;
17345;SDS011;8790;53.590;10.002;2023-04-16T08:06:00;19.50;;;14.63;;
17345;SDS011;8790;53.590;10.002;2023-04-16T08:08:32;17.70;;;14.20;;
17345;SDS011;8790;53.590;10.002;2023-04-16T08:11:03;16.97;;;14.10;;
17345;SDS011;8790;53.590;10.002;2023-04-16T08:13:36;17.70;;;14.27;;
17345;SDS011;8790;53.590;10.002;2023-04-16T08:16:08;19.70;;;14.73;;
17345;SDS011;8790;53.590;10.002;2023-04-16T08:18:40;17.67;;;14.57;;
17345;SDS011;8790;53.590;10.002;2023-04-16T08:21:11;18.20;;;14.60;;
17345;SDS011;8790;53.590;10.002;2023-04-16T08:23:43;22.37;;;14.30;;
17345;SDS011;8790;53.590;10.002;2023-04-16T08:26:15;17.17;;;14.43;;
17345;SDS011;8790;53.590;10.002;2023-04-16T08:28:48;17.30;;;14.53;;
17345;SDS011;8790;53.590;10.002;2023-04-16T08:31:20;18.10;;;14.40;;
17345;SDS011;8790;53.590;10.002;2023-04-16T08:33:52;18.27;;;13.97;;
17345;SDS011;8790;53.590;10.002;2023-04-16T08:36:24;16.50;;;13.40;;
17345;SDS011;8790;53.590;10.002;2023-04-16T08:38:55;17.53;;;14.13;;
17345;SDS011;8790;53.590;10.002;2023-04-16T08:41:27;18.53;;;14.63;;
17345;SDS011;8790;53.590;10.002;2023-04-16T08:44:06;19.17;;;14.33;;
17345;SDS011;8790;53.590;10.002;2023-04-16T08:46:39;17.07;;;13.60;;
17345;SDS011;8790;53.590;10.002;2023-04-16T08:49:14;18.53;;;13.90;;
17345;SDS011;8790;53.590;10.002;2023-04-16T08:51:48;17.00;;;13.80;;
17345;SDS011;8790;53.590;10.002;2023-04-16T08:54:25;19.83;;;14.10;;
17345;SDS011;8790;53.590;10.002;2023-04-16T08:57:03;18.27;;;14.37;;
17345;SDS011;8790;53.590;10.002;2023-04-16T08:59:38;15.53;;;13.70;;
17345;SDS011;8790;53.590;10.002;2023-04-16T09:02:12;17.57;;;13.73;;
17345;SDS011;8790;53.590;10.002;2023-04-16T09:04:44;17.87;;;12.97;;
17345;SDS011;8790;53.590;10.002;2023-04-16T09:07:18;17.43;;;13.17;;
17345;SDS011;8790;53.590;10.002;2023-04-16T09:09:51;17.43;;;14.03;;
17345;SDS011;8790;53.590;10.002;2023-04-16T09:12:23;17.70;;;14.83;;
17345;SDS011;8790;53.590;10.002;2023-04-16T09:14:57;15.90;;;13.03;;
17345;SDS011;8790;53.590;10.002;2023-04-16T09:17:32;18.83;;;13.90;;
17345;SDS011;8790;53.590;10.002;2023-04-16T09:20:05;17.40;;;14.37;;
17345;SDS011;8790;53.590;10.002;2023-04-16T09:22:39;15.27;;;12.97;;
17345;SDS011;8790;53.590;10.002;2023-04-16T09:25:11;20.33;;;13.10;;
17345;SDS011;8790;53.590;10.002;2023-04-16T09:27:43;15.87;;;13.67;;
17345;SDS011;8790;53.590;10.002;2023-04-16T09:30:21;16.00;;;13.33;;
17345;SDS011;8790;53.590;10.002;2023-04-16T09:35:45;19.07;;;14.47;;
17345;SDS011;8790;53.590;10.002;2023-04-16T09:38:18;19.13;;;13.63;;
17345;SDS011;8790;53.590;10.002;2023-04-16T09:41:04;17.93;;;14.50;;
17345;SDS011;8790;53.590;10.002;2023-04-16T09:43:37;15.63;;;13.17;;
17345;SDS011;8790;53.590;10.002;2023-04-16T09:46:11;16.30;;;14.33;;
17345;SDS011;8790;53.590;10.002;2023-04-16T09:48:43;15.77;;;12.90;;
17345;SDS011;8790;53.590;10.002;2023-04-16T09:51:16;16.70;;;13.17;;
17345;SDS011;8790;53.590;10.002;2023-04-16T09:53:50;17.27;;;13.23;;
17345;SDS011;8790;53.590;10.002;2023-04-16T09:56:23;17.50;;;13.97;;
17345;SDS011;8790;53.590;10.002;2023-04-16T09:58:55;18.07;;;13.53;;
17345;SDS011;8790;53.590;10.002;2023-04-16T10:01:29;16.70;;;12.97;;
17345;SDS011;8790;53.590;10.002;2023-04-16T10:04:01;14.87;;;13.13;;
17345;SDS011;8790;53.590;10.002;2023-04-16T10:06:36;15.83;;;13.47;;
17345;SDS011;8790;53.590;10.002;2023-04-16T10:09:08;17.40;;;13.90;;
17345;SDS011;8790;53.590;10.002;2023-04-16T10:11:40;17.13;;;12.87;;
17345;SDS011;8790;53.590;10.002;2023-04-16T10:14:12;16.90;;;12.93;;
17345;SDS011;8790;53.590;10.002;2023-04-16T10:16:45;15.23;;;13.07;;
17345;SDS011;8790;53.590;10.002;2023-04-16T10:19:17;16.43;;;13.43;;
17345;SDS011;8790;53.590;10.002;2023-04-16T10:21:49;15.53;;;12.90;;
17345;SDS011;8790;53.590;10.002;2023-04-16T10:24:21;14.60;;;11.93;;
17345;SDS011;8790;53.590;10.002;2023-04-16T10:26:53;14.93;;;12.40;;
17345;SDS011;8790;53.590;10.002;2023-04-16T10:29:25;18.93;;;13.33;;
17345;SDS011;8790;53.590;10.002;2023-04-16T10:32:00;16.50;;;13.60;;
17345;SDS011;8790;53.590;10.002;2023-04-16T10:34:33;19.17;;;12.87;;
17345;SDS011;8790;53.590;10.002;2023-04-16T10:37:06;15.77;;;13.13;;
17345;SDS011;8790;53.590;10.002;2023-04-16T10:39:37;15.90;;;13.10;;
17345;SDS011;8790;53.590;10.002;2023-04-16T10:42:09;14.50;;;12.27;;
17345;SDS011;8790;53.590;10.002;2023-04-16T10:44:42;16.63;;;13.47;;
17345;SDS011;8790;53.590;10.002;2023-04-16T10:47:17;17.00;;;13.43;;
17345;SDS011;8790;53.590;10.002;2023-04-16T10:49:49;16.93;;;13.33;;
17345;SDS011;8790;53.590;10.002;2023-04-16T10:52:21;15.87;;;14.17;;
17345;SDS011;8790;53.590;10.002;2023-04-16T10:54:54;15.47;;;12.73;;
17345;SDS011;8790;53.590;10.002;2023-04-16T10:57:29;16.03;;;13.57;;
17345;SDS011;8790;53.590;10.002;2023-04-16T11:00:01;16.27;;;13.80;;
17345;SDS011;8790;53.590;10.002;2023-04-16T11:02:53;16.63;;;13.53;;
17345;SDS011;8790;53.590;10.002;2023-04-16T11:05:24;16.43;;;13.33;;
17345;SDS011;8790;53.590;10.002;2023-04-16T11:08:15;14.57;;;12.43;;
17345;SDS011;8790;53.590;10.002;2023-04-16T11:10:47;15.53;;;12.93;;
17345;SDS011;8790;53.590;10.002;2023-04-16T11:13:19;17.33;;;13.13;;
17345;SDS011;8790;53.590;10.002;2023-04-16T11:15:54;16.80;;;13.93;;
17345;SDS011;8790;53.590;10.002;2023-04-16T11:18:27;16.03;;;12.97;;
17345;SDS011;8790;53.590;10.002;2023-04-16T11:20:59;18.00;;;12.80;;
17345;SDS011;8790;53.590;10.002;2023-04-16T11:23:43;15.20;;;13.43;;
17345;SDS011;8790;53.590;10.002;2023-04-16T11:26:23;16.93;;;13.90;;
17345;SDS011;8790;53.590;10.002;2023-04-16T11:28:56;17.27;;;14.43;;
17345;SDS011;8790;53.590;10.002;2023-04-16T11:31:29;17.97;;;14.23;;
17345;SDS011;8790;53.590;10.002;2023-04-16T11:34:02;18.90;;;14.47;;
17345;SDS011;8790;53.590;10.002;2023-04-16T11:36:41;18.80;;;13.83;;
17345;SDS011;8790;53.590;10.002;2023-04-16T11:39:13;17.03;;;14.10;;
17345;SDS011;8790;53.590;10.002;2023-04-16T11:41:46;20.77;;;15.77;;
17345;SDS011;8790;53.590;10.002;2023-04-16T11:44:18;18.00;;;14.37;;
17345;SDS011;8790;53.590;10.002;2023-04-16T11:46:51;16.57;;;13.33;;
17345;SDS011;8790;53.590;10.002;2023-04-16T11:49:28;14.20;;;12.70;;
17345;SDS011;8790;53.590;10.002;2023-04-16T11:52:00;16.37;;;12.53;;
17345;SDS011;8790;53.590;10.002;2023-04-16T11:54:32;13.83;;;12.27;;
17345;SDS011;8790;53.590;10.002;2023-04-16T11:57:05;16.40;;;11.73;;
17345;SDS011;8790;53.590;10.002;2023-04-16T11:59:44;15.73;;;12.33;;
17345;SDS011;8790;53.590;10.002;2023-04-16T12:02:17;15.17;;;11.50;;
17345;SDS011;8790;53.590;10.002;2023-04-16T12:05:06;13.13;;;11.43;;
17345;SDS011;8790;53.590;10.002;2023-04-16T12:07:55;13.47;;;11.67;;
17345;SDS011;8790;53.590;10.002;2023-04-16T12:10:28;16.83;;;12.60;;
17345;SDS011;8790;53.590;10.002;2023-04-16T12:13:10;16.17;;;13.07;;
17345;SDS011;8790;53.590;10.002;2023-04-16T12:15:44;14.80;;;12.77;;
17345;SDS011;8790;53.590;10.002;2023-04-16T12:18:17;15.63;;;11.87;;
17345;SDS011;8790;53.590;10.002;2023-04-16T12:20:51;15.30;;;12.63;;
17345;SDS011;8790;53.590;10.002;2023-04-16T12:23:23;13.60;;;12.13;;
17345;SDS011;8790;53.590;10.002;2023-04-16T12:25:56;15.60;;;12.87;;
17345;SDS011;8790;53.590;10.002;2023-04-16T12:28:31;17.60;;;13.30;;
17345;SDS011;8790;53.590;10.002;2023-04-16T12:31:04;17.63;;;13.87;;
17345;SDS011;8790;53.590;10.002;2023-04-16T12:33:37;15.50;;;13.53;;
17345;SDS011;8790;53.590;10.002;2023-04-16T12:36:17;16.37;;;13.23;;
17345;SDS011;8790;53.590;10.002;2023-04-16T12:38:49;14.60;;;13.07;;
17345;SDS011;8790;53.590;10.002;2023-04-16T12:41:21;15.80;;;13.27;;
17345;SDS011;8790;53.590;10.002;2023-04-16T12:44:00;18.63;;;14.00;;
17345;SDS011;8790;53.590;10.002;2023-04-16T12:46:34;15.43;;;12.83;;
17345;SDS011;8790;53.590;10.002;2023-04-16T12:49:06;16.83;;;13.30;;
17345;SDS011;8790;53.590;10.002;2023-04-16T12:51:40;16.93;;;13.53;;
17345;SDS011;8790;53.590;10.002;2023-04-16T12:54:12;15.63;;;13.37;;
17345;SDS011;8790;53.590;10.002;2023-04-16T12:56:44;15.80;;;13.20;;
17345;SDS011;8790;53.590;10.002;2023-04-16T12:59:16;14.87;;;13.00;;
17345;SDS011;8790;53.590;10.002;2023-04-16T13:01:48;16.07;;;13.03;;
17345;SDS011;8790;53.590;10.002;2023-04-16T13:04:21;15.77;;;12.60;;
17345;SDS011;8790;53.590;10.002;2023-04-16T13:06:54;15.50;;;12.97;;
17345;SDS011;8790;53.590;10.002;2023-04-16T13:09:26;14.90;;;12.90;;
17345;SDS011;8790;53.590;10.002;2023-04-16T13:12:01;15.97;;;13.33;;
17345;SDS011;8790;53.590;10.002;2023-04-16T13:14:33;17.13;;;12.50;;
17345;SDS011;8790;53.590;10.002;2023-04-16T13:17:04;14.70;;;12.93;;
17345;SDS011;8790;53.590;10.002;2023-04-16T13:19:36;16.97;;;13.00;;
17345;SDS011;8790;53.590;10.002;2023-04-16T13:22:09;16.37;;;13.20;;
17345;SDS011;8790;53.590;10.002;2023-04-16T13:24:41;16.90;;;14.00;;
17345;SDS011;8790;53.590;10.002;2023-04-16T13:27:13;17.17;;;14.10;;
17345;SDS011;8790;53.590;10.002;2023-04-16T13:29:45;17.00;;;13.63;;
17345;SDS011;8790;53.590;10.002;2023-04-16T13:32:17;16.90;;;13.37;;
17345;SDS011;8790;53.590;10.002;2023-04-16T13:34:49;16.57;;;13.70;;
17345;SDS011;8790;53.590;10.002;2023-04-16T13:37:22;16.27;;;14.00;;
17345;SDS011;8790;53.590;10.002;2023-04-16T13:39:54;16.00;;;13.67;;
17345;SDS011;8790;53.590;10.002;2023-04-16T13:42:27;16.23;;;14.20;;
17345;SDS011;8790;53.590;10.002;2023-04-16T13:44:59;19.33;;;13.47;;
17345;SDS011;8790;53.590;10.002;2023-04-16T13:47:31;18.47;;;13.87;;
17345;SDS011;8790;53.590;10.002;2023-04-16T13:50:04;19.37;;;14.03;;
17345;SDS011;8790;53.590;10.002;2023-04-16T13:52:37;16.43;;;13.47;;
17345;SDS011;8790;53.590;10.002;2023-04-16T13:55:09;16.47;;;13.37;;
17345;SDS011;8790;53.590;10.002;2023-04-16T13:57:43;17.80;;;14.90;;
17345;SDS011;8790;53.590;10.002;2023-04-16T14:00:15;18.80;;;14.47;;
17345;SDS011;8790;53.590;10.002;2023-04-16T14:02:47;17.10;;;14.20;;
17345;SDS011;8790;53.590;10.002;2023-04-16T14:05:44;18.07;;;14.50;;
17345;SDS011;8790;53.590;10.002;2023-04-16T14:08:18;18.47;;;13.83;;
17345;SDS011;8790;53.590;10.002;2023-04-16T14:10:50;16.57;;;13.77;;
17345;SDS011;8790;53.590;10.002;2023-04-16T14:13:22;16.73;;;14.93;;
17345;SDS011;8790;53.590;10.002;2023-04-16T14:15:54;17.53;;;14.33;;
17345;SDS011;8790;53.590;10.002;2023-04-16T14:18:26;16.17;;;13.70;;
17345;SDS011;8790;53.590;10.002;2023-04-16T14:20:58;18.83;;;14.57;;
17345;SDS011;8790;53.590;10.002;2023-04-16T14:23:32;16.27;;;11.73;;
17345;SDS011;8790;53.590;10.002;2023-04-16T14:26:04;15.30;;;13.43;;
17345;SDS011;8790;53.590;10.002;2023-04-16T14:28:36;20.20;;;13.83;;
17345;SDS011;8790;53.590;10.002;2023-04-16T14:31:08;16.33;;;13.47;;
17345;SDS011;8790;53.590;10.002;2023-04-16T14:33:40;17.47;;;14.03;;
17345;SDS011;8790;53.590;10.002;2023-04-16T14:36:11;15.43;;;13.60;;
17345;SDS011;8790;53.590;10.002;2023-04-16T14:38:44;16.17;;;14.10;;
17345;SDS011;8790;53.590;10.002;2023-04-16T14:41:17;17.20;;;13.60;;
17345;SDS011;8790;53.590;10.002;2023-04-16T14:43:49;15.43;;;13.17;;
17345;SDS011;8790;53.590;10.002;2023-04-16T14:46:20;17.70;;;14.77;;
17345;SDS011;8790;53.590;10.002;2023-04-16T14:48:52;15.37;;;12.97;;
17345;SDS011;8790;53.590;10.002;2023-04-16T14:51:24;18.97;;;15.17;;
17345;SDS011;8790;53.590;10.002;2023-04-16T14:53:57;19.30;;;14.97;;
17345;SDS011;8790;53.590;10.002;2023-04-16T14:56:29;17.27;;;14.40;;